sensor_id;sensor_type;location;lat;lon;timestamp;P1;durP1;ratioP1;P2;durP2;ratioP2
43098;SDS011;28715;51.988;6.020;2023-02-15T00:01:31;95.07;;;42.75;;
43098;SDS011;28715;51.988;6.020;2023-02-15T00:03:58;113.90;;;46.20;;
43098;SDS011;28715;51.988;6.020;2023-02-15T00:06:24;106.20;;;45.60;;
43098;SDS011;28715;51.988;6.020;2023-02-15T00:08:49;117.50;;;46.53;;
43098;SDS011;28715;51.988;6.020;2023-02-15T00:11:16;120.13;;;46.90;;
43098;SDS011;28715;51.988;6.020;2023-02-15T00:14:23;100.28;;;41.55;;
43098;SDS011;28715;51.988;6.020;2023-02-15T00:16:50;106.90;;;43.75;;
43098;SDS011;28715;51.988;6.020;2023-02-15T00:19:17;107.85;;;45.58;;
43098;SDS011;28715;51.988;6.020;2023-02-15T00:21:44;113.55;;;46.42;;
43098;SDS011;28715;51.988;6.020;2023-02-15T00:24:12;110.95;;;47.78;;
43098;SDS011;28715;51.988;6.020;2023-02-15T00:26:39;125.43;;;48.33;;
43098;SDS011;28715;51.988;6.020;2023-02-15T00:29:06;115.63;;;47.00;;
43098;SDS011;28715;51.988;6.020;2023-02-15T00:31:32;125.25;;;50.90;;
43098;SDS011;28715;51.988;6.020;2023-02-15T00:34:05;126.57;;;52.05;;
43098;SDS011;28715;51.988;6.020;2023-02-15T00:36:36;124.13;;;48.33;;
43098;SDS011;28715;51.988;6.020;2023-02-15T00:39:01;122.20;;;46.73;;
43098;SDS011;28715;51.988;6.020;2023-02-15T00:41:27;109.50;;;45.80;;
43098;SDS011;28715;51.988;6.020;2023-02-15T00:43:53;124.40;;;48.90;;
43098;SDS011;28715;51.988;6.020;2023-02-15T00:46:19;120.43;;;47.63;;
43098;SDS011;28715;51.988;6.020;2023-02-15T00:48:44;128.13;;;50.53;;
43098;SDS011;28715;51.988;6.020;2023-02-15T00:51:10;123.73;;;50.87;;
43098;SDS011;28715;51.988;6.020;2023-02-15T00:53:35;140.47;;;54.03;;
43098;SDS011;28715;51.988;6.020;2023-02-15T00:56:01;134.67;;;51.97;;
43098;SDS011;28715;51.988;6.020;2023-02-15T00:58:26;149.63;;;54.47;;
43098;SDS011;28715;51.988;6.020;2023-02-15T01:00:52;133.53;;;53.23;;
43098;SDS011;28715;51.988;6.020;2023-02-15T01:03:18;149.33;;;54.73;;
43098;SDS011;28715;51.988;6.020;2023-02-15T01:05:46;139.48;;;53.05;;
43098;SDS011;28715;51.988;6.020;2023-02-15T01:08:12;105.40;;;44.13;;
43098;SDS011;28715;51.988;6.020;2023-02-15T01:10:38;120.83;;;48.40;;
43098;SDS011;28715;51.988;6.020;2023-02-15T01:13:04;101.85;;;41.30;;
43098;SDS011;28715;51.988;6.020;2023-02-15T01:15:30;102.20;;;42.03;;
43098;SDS011;28715;51.988;6.020;2023-02-15T01:17:55;75.50;;;36.40;;
43098;SDS011;28715;51.988;6.020;2023-02-15T01:20:22;97.10;;;41.83;;
43098;SDS011;28715;51.988;6.020;2023-02-15T01:22:50;109.40;;;43.85;;
43098;SDS011;28715;51.988;6.020;2023-02-15T01:25:16;103.88;;;44.08;;
43098;SDS011;28715;51.988;6.020;2023-02-15T01:27:42;109.50;;;44.95;;
43098;SDS011;28715;51.988;6.020;2023-02-15T01:30:08;104.80;;;46.67;;
43098;SDS011;28715;51.988;6.020;2023-02-15T01:32:34;120.53;;;48.30;;
43098;SDS011;28715;51.988;6.020;2023-02-15T01:35:00;125.00;;;49.47;;
43098;SDS011;28715;51.988;6.020;2023-02-15T01:37:26;125.87;;;47.97;;
43098;SDS011;28715;51.988;6.020;2023-02-15T01:39:51;128.90;;;49.50;;
43098;SDS011;28715;51.988;6.020;2023-02-15T01:42:22;123.43;;;49.65;;
43098;SDS011;28715;51.988;6.020;2023-02-15T01:47:23;121.72;;;48.42;;
43098;SDS011;28715;51.988;6.020;2023-02-15T01:49:56;128.48;;;51.95;;
43098;SDS011;28715;51.988;6.020;2023-02-15T01:52:26;130.93;;;51.13;;
43098;SDS011;28715;51.988;6.020;2023-02-15T01:54:53;156.00;;;54.45;;
43098;SDS011;28715;51.988;6.020;2023-02-15T01:57:19;121.70;;;48.43;;
43098;SDS011;28715;51.988;6.020;2023-02-15T01:59:49;136.57;;;51.80;;
43098;SDS011;28715;51.988;6.020;2023-02-15T02:02:19;121.07;;;50.00;;
43098;SDS011;28715;51.988;6.020;2023-02-15T02:04:53;125.50;;;49.25;;
43098;SDS011;28715;51.988;6.020;2023-02-15T02:07:26;122.63;;;49.90;;
43098;SDS011;28715;51.988;6.020;2023-02-15T02:09:53;133.30;;;52.65;;
43098;SDS011;28715;51.988;6.020;2023-02-15T02:12:19;138.13;;;53.33;;
43098;SDS011;28715;51.988;6.020;2023-02-15T02:14:48;132.80;;;52.67;;
43098;SDS011;28715;51.988;6.020;2023-02-15T02:17:35;147.27;;;55.38;;
43098;SDS011;28715;51.988;6.020;2023-02-15T02:20:28;135.40;;;48.60;;
43098;SDS011;28715;51.988;6.020;2023-02-15T02:28:49;123.13;;;49.80;;
43098;SDS011;28715;51.988;6.020;2023-02-15T02:31:40;119.75;;;48.47;;
43098;SDS011;28715;51.988;6.020;2023-02-15T02:39:20;131.00;;;51.38;;
43098;SDS011;28715;51.988;6.020;2023-02-15T02:42:49;122.72;;;48.90;;
43098;SDS011;28715;51.988;6.020;2023-02-15T02:47:59;121.95;;;48.33;;
43098;SDS011;28715;51.988;6.020;2023-02-15T02:50:30;133.52;;;48.35;;
43098;SDS011;28715;51.988;6.020;2023-02-15T02:52:56;119.90;;;46.83;;
43098;SDS011;28715;51.988;6.020;2023-02-15T02:55:45;134.85;;;48.28;;
43098;SDS011;28715;51.988;6.020;2023-02-15T02:58:23;117.47;;;46.95;;
43098;SDS011;28715;51.988;6.020;2023-02-15T03:01:02;115.97;;;45.38;;
43098;SDS011;28715;51.988;6.020;2023-02-15T03:03:44;123.90;;;47.50;;
43098;SDS011;28715;51.988;6.020;2023-02-15T03:06:54;129.32;;;49.25;;
43098;SDS011;28715;51.988;6.020;2023-02-15T03:09:23;121.78;;;46.75;;
43098;SDS011;28715;51.988;6.020;2023-02-15T03:12:01;112.25;;;45.58;;
43098;SDS011;28715;51.988;6.020;2023-02-15T03:14:28;139.45;;;52.88;;
43098;SDS011;28715;51.988;6.020;2023-02-15T03:16:54;141.02;;;53.75;;
43098;SDS011;28715;51.988;6.020;2023-02-15T03:19:22;141.13;;;52.08;;
43098;SDS011;28715;51.988;6.020;2023-02-15T03:21:54;126.30;;;48.53;;
43098;SDS011;28715;51.988;6.020;2023-02-15T03:24:32;125.18;;;49.15;;
43098;SDS011;28715;51.988;6.020;2023-02-15T03:27:06;116.82;;;48.58;;
43098;SDS011;28715;51.988;6.020;2023-02-15T03:29:37;124.70;;;48.22;;
43098;SDS011;28715;51.988;6.020;2023-02-15T03:32:04;154.07;;;55.40;;
43098;SDS011;28715;51.988;6.020;2023-02-15T03:42:44;123.57;;;46.45;;
43098;SDS011;28715;51.988;6.020;2023-02-15T03:45:14;151.80;;;53.20;;
43098;SDS011;28715;51.988;6.020;2023-02-15T03:47:47;119.40;;;46.33;;
43098;SDS011;28715;51.988;6.020;2023-02-15T03:53:15;115.90;;;45.88;;
43098;SDS011;28715;51.988;6.020;2023-02-15T03:55:49;123.82;;;48.72;;
43098;SDS011;28715;51.988;6.020;2023-02-15T03:58:19;134.52;;;49.40;;
43098;SDS011;28715;51.988;6.020;2023-02-15T04:01:03;113.38;;;45.95;;
43098;SDS011;28715;51.988;6.020;2023-02-15T04:03:56;121.53;;;45.83;;
43098;SDS011;28715;51.988;6.020;2023-02-15T04:06:25;126.22;;;49.83;;
43098;SDS011;28715;51.988;6.020;2023-02-15T04:08:51;122.17;;;46.40;;
43098;SDS011;28715;51.988;6.020;2023-02-15T04:11:35;113.43;;;44.97;;
43098;SDS011;28715;51.988;6.020;2023-02-15T04:14:01;140.30;;;53.20;;
43098;SDS011;28715;51.988;6.020;2023-02-15T04:16:46;111.95;;;45.42;;
43098;SDS011;28715;51.988;6.020;2023-02-15T04:19:12;131.67;;;50.63;;
43098;SDS011;28715;51.988;6.020;2023-02-15T04:21:56;135.93;;;49.67;;
43098;SDS011;28715;51.988;6.020;2023-02-15T04:24:40;123.25;;;49.25;;
43098;SDS011;28715;51.988;6.020;2023-02-15T04:27:24;124.93;;;47.42;;
43098;SDS011;28715;51.988;6.020;2023-02-15T04:29:49;136.43;;;50.90;;
43098;SDS011;28715;51.988;6.020;2023-02-15T04:32:15;131.10;;;49.30;;
43098;SDS011;28715;51.988;6.020;2023-02-15T04:34:40;107.17;;;43.67;;
43098;SDS011;28715;51.988;6.020;2023-02-15T04:37:06;124.77;;;48.37;;
43098;SDS011;28715;51.988;6.020;2023-02-15T04:39:31;114.03;;;45.10;;
43098;SDS011;28715;51.988;6.020;2023-02-15T04:41:57;121.90;;;47.77;;
43098;SDS011;28715;51.988;6.020;2023-02-15T04:44:23;121.93;;;45.17;;
43098;SDS011;28715;51.988;6.020;2023-02-15T04:46:48;134.63;;;49.23;;
43098;SDS011;28715;51.988;6.020;2023-02-15T04:49:14;123.90;;;46.73;;
43098;SDS011;28715;51.988;6.020;2023-02-15T04:51:40;123.97;;;46.60;;
43098;SDS011;28715;51.988;6.020;2023-02-15T04:54:05;135.00;;;49.77;;
43098;SDS011;28715;51.988;6.020;2023-02-15T04:56:31;112.57;;;45.07;;
43098;SDS011;28715;51.988;6.020;2023-02-15T04:58:58;119.68;;;45.50;;
43098;SDS011;28715;51.988;6.020;2023-02-15T05:01:24;137.97;;;49.33;;
43098;SDS011;28715;51.988;6.020;2023-02-15T05:03:49;116.87;;;44.47;;
43098;SDS011;28715;51.988;6.020;2023-02-15T05:06:15;115.70;;;44.30;;
43098;SDS011;28715;51.988;6.020;2023-02-15T05:08:41;115.90;;;44.90;;
43098;SDS011;28715;51.988;6.020;2023-02-15T05:11:06;122.73;;;49.13;;
43098;SDS011;28715;51.988;6.020;2023-02-15T05:13:32;116.30;;;44.63;;
43098;SDS011;28715;51.988;6.020;2023-02-15T05:15:57;114.40;;;43.83;;
43098;SDS011;28715;51.988;6.020;2023-02-15T05:18:23;124.77;;;44.73;;
43098;SDS011;28715;51.988;6.020;2023-02-15T05:20:48;119.13;;;45.53;;
43098;SDS011;28715;51.988;6.020;2023-02-15T05:23:14;125.50;;;47.73;;
43098;SDS011;28715;51.988;6.020;2023-02-15T05:25:40;118.60;;;46.93;;
43098;SDS011;28715;51.988;6.020;2023-02-15T05:28:25;145.57;;;48.17;;
43098;SDS011;28715;51.988;6.020;2023-02-15T05:33:29;118.68;;;45.85;;
43098;SDS011;28715;51.988;6.020;2023-02-15T05:35:55;118.97;;;45.63;;
43098;SDS011;28715;51.988;6.020;2023-02-15T05:38:20;133.90;;;49.90;;
43098;SDS011;28715;51.988;6.020;2023-02-15T05:40:46;127.27;;;47.33;;
43098;SDS011;28715;51.988;6.020;2023-02-15T05:43:11;125.70;;;46.77;;
43098;SDS011;28715;51.988;6.020;2023-02-15T05:45:37;127.73;;;46.20;;
43098;SDS011;28715;51.988;6.020;2023-02-15T05:48:03;139.93;;;48.27;;
43098;SDS011;28715;51.988;6.020;2023-02-15T05:50:28;121.80;;;45.67;;
43098;SDS011;28715;51.988;6.020;2023-02-15T05:52:54;124.00;;;47.07;;
43098;SDS011;28715;51.988;6.020;2023-02-15T05:55:19;142.00;;;49.77;;
43098;SDS011;28715;51.988;6.020;2023-02-15T05:57:45;169.87;;;54.60;;
43098;SDS011;28715;51.988;6.020;2023-02-15T06:00:11;133.00;;;46.70;;
43098;SDS011;28715;51.988;6.020;2023-02-15T06:02:38;127.50;;;48.50;;
43098;SDS011;28715;51.988;6.020;2023-02-15T06:05:04;148.30;;;50.07;;
43098;SDS011;28715;51.988;6.020;2023-02-15T06:07:31;118.20;;;45.45;;
43098;SDS011;28715;51.988;6.020;2023-02-15T06:09:56;129.47;;;49.13;;
43098;SDS011;28715;51.988;6.020;2023-02-15T06:12:22;123.27;;;46.43;;
43098;SDS011;28715;51.988;6.020;2023-02-15T06:14:48;159.63;;;50.47;;
43098;SDS011;28715;51.988;6.020;2023-02-15T06:17:13;149.30;;;50.87;;
43098;SDS011;28715;51.988;6.020;2023-02-15T06:19:39;123.43;;;45.97;;
43098;SDS011;28715;51.988;6.020;2023-02-15T06:22:04;132.90;;;46.97;;
43098;SDS011;28715;51.988;6.020;2023-02-15T06:24:31;122.88;;;44.92;;
43098;SDS011;28715;51.988;6.020;2023-02-15T06:26:56;135.30;;;48.53;;
43098;SDS011;28715;51.988;6.020;2023-02-15T06:29:22;153.63;;;48.93;;
43098;SDS011;28715;51.988;6.020;2023-02-15T06:31:47;147.23;;;51.60;;
43098;SDS011;28715;51.988;6.020;2023-02-15T06:34:13;139.23;;;50.20;;
43098;SDS011;28715;51.988;6.020;2023-02-15T06:36:39;126.47;;;47.23;;
43098;SDS011;28715;51.988;6.020;2023-02-15T06:39:04;128.53;;;45.20;;
43098;SDS011;28715;51.988;6.020;2023-02-15T06:41:30;142.80;;;49.43;;
43098;SDS011;28715;51.988;6.020;2023-02-15T06:43:55;160.93;;;53.53;;
43098;SDS011;28715;51.988;6.020;2023-02-15T06:46:21;121.07;;;45.43;;
43098;SDS011;28715;51.988;6.020;2023-02-15T06:48:47;129.97;;;46.60;;
43098;SDS011;28715;51.988;6.020;2023-02-15T06:51:12;127.27;;;45.67;;
43098;SDS011;28715;51.988;6.020;2023-02-15T06:53:38;118.33;;;43.60;;
43098;SDS011;28715;51.988;6.020;2023-02-15T06:56:07;151.63;;;47.83;;
43098;SDS011;28715;51.988;6.020;2023-02-15T06:58:34;131.07;;;47.53;;
43098;SDS011;28715;51.988;6.020;2023-02-15T07:03:29;145.90;;;49.43;;
43098;SDS011;28715;51.988;6.020;2023-02-15T07:05:59;162.20;;;54.17;;
43098;SDS011;28715;51.988;6.020;2023-02-15T07:08:26;158.75;;;51.38;;
43098;SDS011;28715;51.988;6.020;2023-02-15T07:10:52;132.63;;;46.40;;
43098;SDS011;28715;51.988;6.020;2023-02-15T07:13:19;157.63;;;51.97;;
43098;SDS011;28715;51.988;6.020;2023-02-15T07:15:47;139.25;;;48.72;;
43098;SDS011;28715;51.988;6.020;2023-02-15T07:18:13;127.03;;;48.53;;
43098;SDS011;28715;51.988;6.020;2023-02-15T07:20:39;126.33;;;48.73;;
43098;SDS011;28715;51.988;6.020;2023-02-15T07:23:06;116.57;;;45.45;;
43098;SDS011;28715;51.988;6.020;2023-02-15T07:25:33;146.23;;;50.88;;
43098;SDS011;28715;51.988;6.020;2023-02-15T07:28:00;145.30;;;53.13;;
43098;SDS011;28715;51.988;6.020;2023-02-15T07:30:26;158.45;;;49.47;;
43098;SDS011;28715;51.988;6.020;2023-02-15T07:32:56;127.70;;;49.97;;
43098;SDS011;28715;51.988;6.020;2023-02-15T07:35:48;121.60;;;47.22;;
43098;SDS011;28715;51.988;6.020;2023-02-15T07:38:22;129.85;;;49.90;;
43098;SDS011;28715;51.988;6.020;2023-02-15T07:40:49;115.32;;;45.13;;
43098;SDS011;28715;51.988;6.020;2023-02-15T07:43:15;132.03;;;49.07;;
43098;SDS011;28715;51.988;6.020;2023-02-15T07:45:41;117.43;;;48.35;;
43098;SDS011;28715;51.988;6.020;2023-02-15T07:48:07;122.50;;;48.10;;
43098;SDS011;28715;51.988;6.020;2023-02-15T07:50:33;116.65;;;46.67;;
43098;SDS011;28715;51.988;6.020;2023-02-15T07:53:03;122.32;;;47.63;;
43098;SDS011;28715;51.988;6.020;2023-02-15T07:55:29;107.47;;;47.30;;
43098;SDS011;28715;51.988;6.020;2023-02-15T07:57:55;118.07;;;48.90;;
43098;SDS011;28715;51.988;6.020;2023-02-15T08:00:21;107.87;;;46.13;;
43098;SDS011;28715;51.988;6.020;2023-02-15T08:02:53;95.80;;;44.28;;
43098;SDS011;28715;51.988;6.020;2023-02-15T08:05:39;93.13;;;42.22;;
43098;SDS011;28715;51.988;6.020;2023-02-15T08:08:06;97.10;;;44.35;;
43098;SDS011;28715;51.988;6.020;2023-02-15T08:10:32;99.47;;;44.10;;
43098;SDS011;28715;51.988;6.020;2023-02-15T08:13:17;71.00;;;36.80;;
43098;SDS011;28715;51.988;6.020;2023-02-15T08:15:49;73.97;;;37.27;;
43098;SDS011;28715;51.988;6.020;2023-02-15T08:18:15;68.72;;;37.25;;
43098;SDS011;28715;51.988;6.020;2023-02-15T08:20:41;61.07;;;32.73;;
43098;SDS011;28715;51.988;6.020;2023-02-15T08:23:06;59.17;;;32.90;;
43098;SDS011;28715;51.988;6.020;2023-02-15T08:25:32;58.60;;;30.63;;
43098;SDS011;28715;51.988;6.020;2023-02-15T08:27:58;58.40;;;30.30;;
43098;SDS011;28715;51.988;6.020;2023-02-15T08:30:23;56.00;;;31.30;;
43098;SDS011;28715;51.988;6.020;2023-02-15T08:32:49;58.70;;;31.40;;
43098;SDS011;28715;51.988;6.020;2023-02-15T08:35:14;52.87;;;28.50;;
43098;SDS011;28715;51.988;6.020;2023-02-15T08:37:40;48.20;;;27.70;;
43098;SDS011;28715;51.988;6.020;2023-02-15T08:40:05;48.30;;;28.07;;
43098;SDS011;28715;51.988;6.020;2023-02-15T08:42:32;46.22;;;26.92;;
43098;SDS011;28715;51.988;6.020;2023-02-15T08:44:58;46.53;;;27.10;;
43098;SDS011;28715;51.988;6.020;2023-02-15T08:47:24;46.87;;;26.37;;
43098;SDS011;28715;51.988;6.020;2023-02-15T08:49:49;47.70;;;27.67;;
43098;SDS011;28715;51.988;6.020;2023-02-15T08:52:16;48.90;;;29.80;;
43098;SDS011;28715;51.988;6.020;2023-02-15T08:54:42;46.25;;;27.40;;
43098;SDS011;28715;51.988;6.020;2023-02-15T08:57:07;46.23;;;26.70;;
43098;SDS011;28715;51.988;6.020;2023-02-15T08:59:34;45.35;;;27.63;;
43098;SDS011;28715;51.988;6.020;2023-02-15T09:02:00;47.30;;;28.37;;
43098;SDS011;28715;51.988;6.020;2023-02-15T09:04:26;43.38;;;27.45;;
43098;SDS011;28715;51.988;6.020;2023-02-15T09:06:52;44.53;;;27.90;;
43098;SDS011;28715;51.988;6.020;2023-02-15T09:09:18;43.53;;;27.67;;
43098;SDS011;28715;51.988;6.020;2023-02-15T09:11:45;45.00;;;29.08;;
43098;SDS011;28715;51.988;6.020;2023-02-15T09:14:13;44.90;;;28.17;;
43098;SDS011;28715;51.988;6.020;2023-02-15T09:16:41;42.83;;;27.17;;
43098;SDS011;28715;51.988;6.020;2023-02-15T09:19:13;42.42;;;27.15;;
43098;SDS011;28715;51.988;6.020;2023-02-15T09:21:40;46.35;;;28.48;;
43098;SDS011;28715;51.988;6.020;2023-02-15T09:24:06;45.20;;;27.50;;
43098;SDS011;28715;51.988;6.020;2023-02-15T09:26:34;44.10;;;26.92;;
43098;SDS011;28715;51.988;6.020;2023-02-15T09:29:02;46.33;;;27.60;;
43098;SDS011;28715;51.988;6.020;2023-02-15T09:31:32;41.35;;;27.13;;
43098;SDS011;28715;51.988;6.020;2023-02-15T09:34:01;47.40;;;30.00;;
43098;SDS011;28715;51.988;6.020;2023-02-15T09:36:32;43.40;;;27.13;;
43098;SDS011;28715;51.988;6.020;2023-02-15T09:39:15;43.45;;;28.20;;
43098;SDS011;28715;51.988;6.020;2023-02-15T09:47:37;45.40;;;29.75;;
43098;SDS011;28715;51.988;6.020;2023-02-15T09:58:25;45.42;;;29.05;;
43098;SDS011;28715;51.988;6.020;2023-02-15T10:01:14;42.40;;;27.48;;
43098;SDS011;28715;51.988;6.020;2023-02-15T10:04:04;44.70;;;28.88;;
43098;SDS011;28715;51.988;6.020;2023-02-15T10:06:38;45.10;;;29.77;;
43098;SDS011;28715;51.988;6.020;2023-02-15T10:17:11;46.30;;;28.83;;
43098;SDS011;28715;51.988;6.020;2023-02-15T10:28:41;41.97;;;27.63;;
43098;SDS011;28715;51.988;6.020;2023-02-15T10:34:11;44.92;;;28.98;;
43098;SDS011;28715;51.988;6.020;2023-02-15T10:45:07;41.33;;;27.65;;
43098;SDS011;28715;51.988;6.020;2023-02-15T10:50:16;37.03;;;24.45;;
43098;SDS011;28715;51.988;6.020;2023-02-15T10:53:02;38.45;;;24.00;;
43098;SDS011;28715;51.988;6.020;2023-02-15T10:56:01;33.55;;;23.42;;
43098;SDS011;28715;51.988;6.020;2023-02-15T11:01:41;36.35;;;23.42;;
43098;SDS011;28715;51.988;6.020;2023-02-15T11:06:58;34.38;;;23.00;;
43098;SDS011;28715;51.988;6.020;2023-02-15T11:09:30;37.15;;;22.70;;
43098;SDS011;28715;51.988;6.020;2023-02-15T11:12:02;34.17;;;22.27;;
43098;SDS011;28715;51.988;6.020;2023-02-15T11:14:52;33.15;;;22.15;;
43098;SDS011;28715;51.988;6.020;2023-02-15T11:17:33;33.65;;;23.33;;
43098;SDS011;28715;51.988;6.020;2023-02-15T11:20:17;32.90;;;22.02;;
43098;SDS011;28715;51.988;6.020;2023-02-15T11:22:44;36.35;;;23.20;;
43098;SDS011;28715;51.988;6.020;2023-02-15T11:25:19;31.92;;;21.20;;
43098;SDS011;28715;51.988;6.020;2023-02-15T11:27:55;34.22;;;22.60;;
43098;SDS011;28715;51.988;6.020;2023-02-15T11:30:22;39.40;;;23.47;;
43098;SDS011;28715;51.988;6.020;2023-02-15T11:32:52;33.42;;;22.27;;
43098;SDS011;28715;51.988;6.020;2023-02-15T11:35:27;36.88;;;22.77;;
43098;SDS011;28715;51.988;6.020;2023-02-15T11:38:03;35.80;;;22.77;;
43098;SDS011;28715;51.988;6.020;2023-02-15T11:43:18;34.08;;;22.33;;
43098;SDS011;28715;51.988;6.020;2023-02-15T11:45:48;33.97;;;22.73;;
43098;SDS011;28715;51.988;6.020;2023-02-15T11:48:14;33.23;;;21.67;;
43098;SDS011;28715;51.988;6.020;2023-02-15T11:50:41;36.58;;;24.02;;
43098;SDS011;28715;51.988;6.020;2023-02-15T11:53:18;37.22;;;23.20;;
43098;SDS011;28715;51.988;6.020;2023-02-15T11:55:52;37.50;;;23.77;;
43098;SDS011;28715;51.988;6.020;2023-02-15T11:58:39;33.15;;;21.50;;
43098;SDS011;28715;51.988;6.020;2023-02-15T12:06:46;43.13;;;25.55;;
43098;SDS011;28715;51.988;6.020;2023-02-15T12:09:30;39.53;;;23.38;;
43098;SDS011;28715;51.988;6.020;2023-02-15T12:14:50;39.63;;;24.10;;
43098;SDS011;28715;51.988;6.020;2023-02-15T12:17:17;42.83;;;26.15;;
43098;SDS011;28715;51.988;6.020;2023-02-15T12:19:45;41.15;;;25.77;;
43098;SDS011;28715;51.988;6.020;2023-02-15T12:24:47;41.15;;;25.08;;
43098;SDS011;28715;51.988;6.020;2023-02-15T12:27:21;39.92;;;25.25;;
43098;SDS011;28715;51.988;6.020;2023-02-15T12:29:53;38.42;;;24.83;;
43098;SDS011;28715;51.988;6.020;2023-02-15T12:32:28;38.70;;;25.58;;
43098;SDS011;28715;51.988;6.020;2023-02-15T12:35:02;44.50;;;25.80;;
43098;SDS011;28715;51.988;6.020;2023-02-15T12:37:32;40.08;;;25.33;;
43098;SDS011;28715;51.988;6.020;2023-02-15T12:40:00;40.03;;;25.90;;
43098;SDS011;28715;51.988;6.020;2023-02-15T12:42:28;38.88;;;25.25;;
43098;SDS011;28715;51.988;6.020;2023-02-15T12:45:29;42.42;;;26.27;;
43098;SDS011;28715;51.988;6.020;2023-02-15T12:50:37;43.70;;;28.05;;
43098;SDS011;28715;51.988;6.020;2023-02-15T12:55:50;44.63;;;28.58;;
43098;SDS011;28715;51.988;6.020;2023-02-15T12:58:27;43.35;;;25.98;;
43098;SDS011;28715;51.988;6.020;2023-02-15T13:03:27;45.90;;;28.73;;
43098;SDS011;28715;51.988;6.020;2023-02-15T13:05:54;43.73;;;26.70;;
43098;SDS011;28715;51.988;6.020;2023-02-15T13:08:22;43.95;;;27.55;;
43098;SDS011;28715;51.988;6.020;2023-02-15T13:10:58;42.72;;;28.25;;
43098;SDS011;28715;51.988;6.020;2023-02-15T13:13:33;41.03;;;26.88;;
43098;SDS011;28715;51.988;6.020;2023-02-15T13:16:12;44.05;;;27.60;;
43098;SDS011;28715;51.988;6.020;2023-02-15T13:18:44;41.85;;;28.08;;
43098;SDS011;28715;51.988;6.020;2023-02-15T13:21:13;41.75;;;27.27;;
43098;SDS011;28715;51.988;6.020;2023-02-15T13:23:45;44.25;;;27.40;;
43098;SDS011;28715;51.988;6.020;2023-02-15T13:26:16;44.63;;;27.23;;
43098;SDS011;28715;51.988;6.020;2023-02-15T13:28:48;45.83;;;29.00;;
43098;SDS011;28715;51.988;6.020;2023-02-15T13:31:18;41.58;;;27.98;;
43098;SDS011;28715;51.988;6.020;2023-02-15T13:33:53;44.10;;;28.60;;
43098;SDS011;28715;51.988;6.020;2023-02-15T13:36:34;44.88;;;27.30;;
43098;SDS011;28715;51.988;6.020;2023-02-15T13:39:30;47.05;;;28.50;;
43098;SDS011;28715;51.988;6.020;2023-02-15T13:44:54;46.80;;;28.67;;
43098;SDS011;28715;51.988;6.020;2023-02-15T13:53:33;49.67;;;29.23;;
43098;SDS011;28715;51.988;6.020;2023-02-15T13:56:18;44.28;;;28.85;;
43098;SDS011;28715;51.988;6.020;2023-02-15T14:04:46;48.03;;;29.77;;
43098;SDS011;28715;51.988;6.020;2023-02-15T14:18:12;50.63;;;29.67;;
43098;SDS011;28715;51.988;6.020;2023-02-15T14:20:57;50.70;;;31.08;;
43098;SDS011;28715;51.988;6.020;2023-02-15T14:23:40;47.83;;;30.05;;
43098;SDS011;28715;51.988;6.020;2023-02-15T14:31:34;51.25;;;31.35;;
43098;SDS011;28715;51.988;6.020;2023-02-15T14:34:07;48.63;;;31.77;;
43098;SDS011;28715;51.988;6.020;2023-02-15T14:36:49;51.85;;;31.77;;
43098;SDS011;28715;51.988;6.020;2023-02-15T14:39:41;52.00;;;31.35;;
43098;SDS011;28715;51.988;6.020;2023-02-15T14:42:33;52.50;;;31.90;;
43098;SDS011;28715;51.988;6.020;2023-02-15T14:45:13;51.80;;;30.38;;
43098;SDS011;28715;51.988;6.020;2023-02-15T14:50:55;51.72;;;32.88;;
43098;SDS011;28715;51.988;6.020;2023-02-15T14:58:36;50.75;;;32.22;;
43098;SDS011;28715;51.988;6.020;2023-02-15T15:01:06;48.78;;;29.92;;
43098;SDS011;28715;51.988;6.020;2023-02-15T15:03:33;49.92;;;32.42;;
43098;SDS011;28715;51.988;6.020;2023-02-15T15:06:01;51.33;;;32.45;;
43098;SDS011;28715;51.988;6.020;2023-02-15T15:08:33;49.85;;;32.28;;
43098;SDS011;28715;51.988;6.020;2023-02-15T15:13:56;50.58;;;33.30;;
43098;SDS011;28715;51.988;6.020;2023-02-15T15:16:24;51.65;;;33.10;;
43098;SDS011;28715;51.988;6.020;2023-02-15T15:18:50;54.78;;;33.85;;
43098;SDS011;28715;51.988;6.020;2023-02-15T15:21:51;54.43;;;32.67;;
43098;SDS011;28715;51.988;6.020;2023-02-15T15:38:43;51.88;;;32.80;;
43098;SDS011;28715;51.988;6.020;2023-02-15T15:43:41;54.33;;;32.92;;
43098;SDS011;28715;51.988;6.020;2023-02-15T15:46:20;54.08;;;32.67;;
43098;SDS011;28715;51.988;6.020;2023-02-15T15:49:10;49.78;;;30.52;;
43098;SDS011;28715;51.988;6.020;2023-02-15T15:51:40;52.60;;;31.50;;
43098;SDS011;28715;51.988;6.020;2023-02-15T15:54:20;49.75;;;31.42;;
43098;SDS011;28715;51.988;6.020;2023-02-15T15:56:52;53.15;;;32.63;;
43098;SDS011;28715;51.988;6.020;2023-02-15T15:59:26;53.38;;;32.58;;
43098;SDS011;28715;51.988;6.020;2023-02-15T16:01:54;52.70;;;32.20;;
43098;SDS011;28715;51.988;6.020;2023-02-15T16:04:27;55.80;;;36.03;;
43098;SDS011;28715;51.988;6.020;2023-02-15T16:06:58;52.25;;;32.55;;
43098;SDS011;28715;51.988;6.020;2023-02-15T16:09:41;55.75;;;34.80;;
43098;SDS011;28715;51.988;6.020;2023-02-15T16:12:17;55.05;;;33.10;;
43098;SDS011;28715;51.988;6.020;2023-02-15T16:14:44;62.33;;;37.38;;
43098;SDS011;28715;51.988;6.020;2023-02-15T16:17:17;57.47;;;33.63;;
43098;SDS011;28715;51.988;6.020;2023-02-15T16:19:48;61.65;;;38.70;;
43098;SDS011;28715;51.988;6.020;2023-02-15T16:22:18;62.40;;;37.53;;
43098;SDS011;28715;51.988;6.020;2023-02-15T16:32:53;56.63;;;35.25;;
43098;SDS011;28715;51.988;6.020;2023-02-15T16:35:29;59.58;;;35.95;;
43098;SDS011;28715;51.988;6.020;2023-02-15T16:37:54;58.77;;;34.10;;
43098;SDS011;28715;51.988;6.020;2023-02-15T16:42:52;55.00;;;34.33;;
43098;SDS011;28715;51.988;6.020;2023-02-15T16:45:21;59.55;;;35.53;;
43098;SDS011;28715;51.988;6.020;2023-02-15T16:47:51;63.97;;;37.72;;
43098;SDS011;28715;51.988;6.020;2023-02-15T16:50:22;61.85;;;37.40;;
43098;SDS011;28715;51.988;6.020;2023-02-15T16:52:51;62.42;;;35.78;;
43098;SDS011;28715;51.988;6.020;2023-02-15T16:55:21;58.00;;;34.20;;
43098;SDS011;28715;51.988;6.020;2023-02-15T16:57:57;58.60;;;35.88;;
43098;SDS011;28715;51.988;6.020;2023-02-15T17:00:28;59.75;;;35.33;;
43098;SDS011;28715;51.988;6.020;2023-02-15T17:05:25;60.47;;;35.30;;
43098;SDS011;28715;51.988;6.020;2023-02-15T17:10:30;63.33;;;37.50;;
43098;SDS011;28715;51.988;6.020;2023-02-15T17:13:01;58.10;;;35.80;;
43098;SDS011;28715;51.988;6.020;2023-02-15T17:17:55;60.10;;;35.60;;
43098;SDS011;28715;51.988;6.020;2023-02-15T17:20:23;57.95;;;34.38;;
43098;SDS011;28715;51.988;6.020;2023-02-15T17:22:49;61.30;;;35.03;;
43098;SDS011;28715;51.988;6.020;2023-02-15T17:25:20;55.53;;;35.55;;
43098;SDS011;28715;51.988;6.020;2023-02-15T17:27:51;55.65;;;33.83;;
43098;SDS011;28715;51.988;6.020;2023-02-15T17:30:26;59.17;;;35.88;;
43098;SDS011;28715;51.988;6.020;2023-02-15T17:33:00;57.08;;;34.70;;
43098;SDS011;28715;51.988;6.020;2023-02-15T17:35:31;59.15;;;34.53;;
43098;SDS011;28715;51.988;6.020;2023-02-15T17:40:43;65.18;;;35.65;;
43098;SDS011;28715;51.988;6.020;2023-02-15T17:43:09;62.63;;;36.80;;